createdAt,value
2018-07-25T00:01:55.140Z,96915.27
2018-07-25T00:04:22.623Z,96917.09
2018-07-25T00:06:50.118Z,96911.02
2018-07-25T00:09:17.516Z,96919.36
2018-07-25T00:11:45.048Z,96918.62
2018-07-25T00:14:12.545Z,96916.23
2018-07-25T00:16:40.374Z,96909.92
2018-07-25T00:19:07.806Z,96912.42
2018-07-25T00:21:35.338Z,96915.33
2018-07-25T00:24:02.805Z,96913.68
2018-07-25T00:26:30.283Z,96917.26
2018-07-25T00:28:57.686Z,96917.95
2018-07-25T00:31:25.151Z,96912.79
2018-07-25T00:33:52.604Z,96907.94
2018-07-25T00:36:20.173Z,96916.09
2018-07-25T00:38:47.551Z,96916.72
2018-07-25T00:41:15.006Z,96918.69
2018-07-25T00:43:42.459Z,96924.52
2018-07-25T00:46:09.892Z,96928.05
2018-07-25T00:48:37.431Z,96930.20
2018-07-25T00:51:04.873Z,96931.36
2018-07-25T00:53:32.356Z,96924.78
2018-07-25T00:55:59.862Z,96931.88
2018-07-25T00:58:27.302Z,96927.20
2018-07-25T01:00:54.714Z,96924.58
2018-07-25T01:03:22.197Z,96927.41
2018-07-25T01:05:49.655Z,96921.28
2018-07-25T01:08:17.139Z,96929.78
2018-07-25T01:10:44.677Z,96928.73
2018-07-25T01:13:12.180Z,96929.89
2018-07-25T01:15:39.668Z,96929.24
2018-07-25T01:18:07.241Z,96933.05
2018-07-25T01:20:34.920Z,96936.72
2018-07-25T01:23:02.446Z,96939.48
2018-07-25T01:25:30.027Z,96939.08
2018-07-25T01:27:57.575Z,96941.45
2018-07-25T01:30:24.977Z,96944.48
2018-07-25T01:32:52.418Z,96949.53
2018-07-25T01:35:20.826Z,96948.15
2018-07-25T01:37:48.305Z,96940.77
2018-07-25T01:40:15.787Z,96942.58
2018-07-25T01:42:43.267Z,96941.23
2018-07-25T01:45:10.731Z,96943.22
2018-07-25T01:47:38.161Z,96947.20
2018-07-25T01:50:05.580Z,96946.32
2018-07-25T01:52:33.005Z,96951.31
2018-07-25T01:55:00.464Z,96947.51
2018-07-25T01:57:27.908Z,96949.12
2018-07-25T01:59:55.327Z,96942.22
2018-07-25T02:02:22.767Z,96944.07
2018-07-25T02:04:50.170Z,96943.39
2018-07-25T02:07:17.642Z,96940.95
2018-07-25T02:09:45.482Z,96946.03
2018-07-25T02:12:12.938Z,96949.44
2018-07-25T02:14:40.397Z,96950.33
2018-07-25T02:17:08.039Z,96951.66
2018-07-25T02:19:35.588Z,96953.69
2018-07-25T02:22:02.994Z,96948.55
2018-07-25T02:24:30.438Z,96953.77
2018-07-25T02:26:57.907Z,96955.06
2018-07-25T02:29:25.428Z,96957.98
2018-07-25T02:31:52.896Z,96955.37
2018-07-25T02:34:20.480Z,96960.58
2018-07-25T02:36:47.926Z,96952.69
2018-07-25T02:39:15.366Z,96959.63
2018-07-25T02:41:42.812Z,96955.03
2018-07-25T02:44:10.285Z,96955.80
2018-07-25T02:46:37.727Z,96960.99
2018-07-25T02:49:05.202Z,96966.69
2018-07-25T02:51:32.652Z,96964.88
2018-07-25T02:54:00.177Z,96970.09
2018-07-25T02:56:28.580Z,96966.80
2018-07-25T02:58:56.036Z,96972.30
2018-07-25T03:01:23.840Z,96971.64
2018-07-25T03:03:51.455Z,96973.91
2018-07-25T03:06:18.915Z,96970.69
2018-07-25T03:08:46.334Z,96976.55
2018-07-25T03:11:13.794Z,96975.27
2018-07-25T03:13:41.239Z,96976.08
2018-07-25T03:16:08.697Z,96978.54
2018-07-25T03:18:36.219Z,96971.61
2018-07-25T03:21:03.770Z,96978.14
2018-07-25T03:23:31.219Z,96978.48
2018-07-25T03:25:58.663Z,96975.20
2018-07-25T03:28:26.087Z,96969.96
2018-07-25T03:30:53.532Z,96979.78
2018-07-25T03:33:21.005Z,96979.03
2018-07-25T03:35:48.418Z,96985.16
2018-07-25T03:38:15.843Z,96979.75
2018-07-25T03:40:43.286Z,96987.08
2018-07-25T03:43:10.952Z,96987.91
2018-07-25T03:45:38.383Z,96987.80
2018-07-25T03:48:06.018Z,96988.30
2018-07-25T03:50:33.469Z,96986.97
2018-07-25T03:53:00.979Z,96988.52
2018-07-25T03:55:28.459Z,96988.28
2018-07-25T03:57:55.882Z,96989.27
2018-07-25T04:00:23.418Z,96991.09
2018-07-25T04:02:50.938Z,96997.53
2018-07-25T04:05:18.382Z,96992.34
2018-07-25T04:07:45.823Z,96986.50
2018-07-25T04:10:13.279Z,96986.75
2018-07-25T04:12:40.792Z,96989.52
2018-07-25T04:15:08.931Z,96998.59
2018-07-25T04:17:36.405Z,97000.91
2018-07-25T04:20:03.894Z,96998.72
2018-07-25T04:22:31.361Z,97002.83
2018-07-25T04:24:58.904Z,97000.41
2018-07-25T04:27:26.352Z,97001.84
2018-07-25T04:29:53.785Z,97001.75
2018-07-25T04:32:21.278Z,97006.98
2018-07-25T04:34:48.777Z,97005.98
2018-07-25T04:37:16.229Z,97001.22
2018-07-25T04:39:43.716Z,97009.62
2018-07-25T04:42:11.223Z,97007.02
2018-07-25T04:44:38.689Z,97015.13
2018-07-25T04:47:06.137Z,97017.64
2018-07-25T04:49:33.588Z,97023.05
2018-07-25T04:52:01.033Z,97025.22
2018-07-25T04:54:28.506Z,97028.81
2018-07-25T04:56:55.961Z,97030.08
2018-07-25T04:59:23.380Z,97032.37
2018-07-25T05:01:50.839Z,97028.71
2018-07-25T05:04:18.292Z,97034.75
2018-07-25T05:06:45.730Z,97030.09
2018-07-25T05:09:13.216Z,97024.84
2018-07-25T05:11:40.659Z,97030.41
2018-07-25T05:14:08.073Z,97036.00
2018-07-25T05:16:35.565Z,97035.36
2018-07-25T05:19:03.104Z,97043.96
2018-07-25T05:21:30.530Z,97038.19
2018-07-25T05:23:57.963Z,97043.24
2018-07-25T05:26:25.440Z,97036.79
2018-07-25T05:28:52.894Z,97042.87
2018-07-25T05:31:20.371Z,97045.58
2018-07-25T05:33:47.857Z,97045.36
2018-07-25T05:36:15.770Z,97043.58
2018-07-25T05:38:43.252Z,97045.29
2018-07-25T05:41:10.693Z,97047.17
2018-07-25T05:43:38.177Z,97044.76
2018-07-25T05:46:05.642Z,97051.91
2018-07-25T05:48:33.089Z,97056.61
2018-07-25T05:51:00.941Z,97053.32
2018-07-25T05:53:28.420Z,97054.02
2018-07-25T05:55:55.844Z,97050.44
2018-07-25T05:58:23.335Z,97046.42
2018-07-25T06:00:50.880Z,97051.06
2018-07-25T06:03:18.445Z,97043.56
2018-07-25T06:05:45.857Z,97049.13
2018-07-25T06:08:13.263Z,97049.95
2018-07-25T06:10:40.732Z,97046.45
2018-07-25T06:13:08.156Z,97044.29
2018-07-25T06:15:35.550Z,97040.98
2018-07-25T06:18:03.020Z,97036.17
2018-07-25T06:20:30.449Z,97034.23
2018-07-25T06:22:57.884Z,97035.45
2018-07-25T06:25:25.361Z,97037.53
2018-07-25T06:27:52.774Z,97040.48
2018-07-25T06:30:20.336Z,97038.06
2018-07-25T06:32:47.963Z,97042.30
2018-07-25T06:35:15.429Z,97045.02
2018-07-25T06:37:42.837Z,97048.08
2018-07-25T06:40:10.302Z,97059.13
2018-07-25T06:42:37.842Z,97055.16
2018-07-25T06:45:05.400Z,97055.59
2018-07-25T06:47:32.858Z,97063.98
2018-07-25T06:50:00.521Z,97055.77
2018-07-25T06:52:27.945Z,97054.34
2018-07-25T06:54:55.684Z,97053.13
2018-07-25T06:57:23.202Z,97059.16
2018-07-25T06:59:50.622Z,97058.62
2018-07-25T07:02:18.186Z,97057.48
2018-07-25T07:04:45.672Z,97058.78
2018-07-25T07:07:13.160Z,97053.89
2018-07-25T07:09:40.734Z,97050.73
2018-07-25T07:12:08.166Z,97055.02
2018-07-25T07:14:35.635Z,97054.60
2018-07-25T07:17:03.408Z,97057.63
2018-07-25T07:19:30.886Z,97057.34
2018-07-25T07:21:58.347Z,97059.66
2018-07-25T07:24:25.812Z,97062.09
2018-07-25T07:26:54.205Z,97062.62
2018-07-25T07:29:21.644Z,97071.26
2018-07-25T07:31:49.187Z,97062.88
2018-07-25T07:34:16.721Z,97063.63
2018-07-25T07:36:44.213Z,97059.35
2018-07-25T07:39:11.642Z,97057.27
2018-07-25T07:41:39.131Z,97055.58
2018-07-25T07:44:06.711Z,97056.16
2018-07-25T07:46:34.151Z,97056.98
2018-07-25T07:49:01.759Z,97050.55
2018-07-25T07:51:29.198Z,97050.73
2018-07-25T07:53:56.677Z,97045.88
2018-07-25T07:56:24.153Z,97042.52
2018-07-25T07:58:51.640Z,97046.72
2018-07-25T08:01:19.763Z,97043.59
2018-07-25T08:03:47.235Z,97051.73
2018-07-25T08:06:14.835Z,97054.26
2018-07-25T08:08:42.242Z,97050.78
2018-07-25T08:11:09.645Z,97048.52
2018-07-25T08:13:37.094Z,97047.41
2018-07-25T08:16:04.569Z,97051.37
2018-07-25T08:18:32.027Z,97047.48
2018-07-25T08:20:59.532Z,97049.96
2018-07-25T08:23:27.065Z,97050.52
2018-07-25T08:25:54.589Z,97048.08
2018-07-25T08:28:22.078Z,97047.58
2018-07-25T08:30:49.523Z,97044.75
2018-07-25T08:33:16.996Z,97036.16
2018-07-25T08:35:44.476Z,97038.09
2018-07-25T08:38:12.014Z,97033.06
2018-07-25T08:40:39.126Z,97043.89
2018-07-25T08:43:06.149Z,97037.84
2018-07-25T08:45:33.333Z,97031.70
2018-07-25T08:48:00.471Z,97028.75
2018-07-25T08:50:27.496Z,97029.09
2018-07-25T08:52:54.652Z,97031.70
2018-07-25T08:55:21.777Z,97027.00
2018-07-25T08:57:48.884Z,97029.23
2018-07-25T09:00:15.930Z,97025.45
2018-07-25T09:02:42.988Z,97027.82
2018-07-25T09:05:10.134Z,97028.54
2018-07-25T09:07:37.281Z,97025.44
2018-07-25T09:10:04.330Z,97021.14
2018-07-25T09:12:31.384Z,97025.58
2018-07-25T09:14:58.473Z,97024.92
2018-07-25T09:17:25.450Z,97027.03
2018-07-25T09:19:52.463Z,97023.69
2018-07-25T09:22:19.972Z,97025.25
2018-07-25T09:24:47.424Z,97019.06
2018-07-25T09:27:14.917Z,97024.63
2018-07-25T09:29:42.470Z,97023.75
2018-07-25T09:32:10.164Z,97022.76
2018-07-25T09:34:37.637Z,97022.20
2018-07-25T09:37:05.092Z,97024.20
2018-07-25T09:39:32.686Z,97020.82
2018-07-25T09:42:00.188Z,97020.73
2018-07-25T09:44:27.631Z,97016.70
2018-07-25T09:46:55.078Z,97017.45
2018-07-25T09:49:22.559Z,97020.22
2018-07-25T09:51:50.031Z,97019.89
2018-07-25T09:54:17.494Z,97018.88
2018-07-25T09:56:45.055Z,97014.73
2018-07-25T09:59:12.504Z,97013.08
2018-07-25T10:01:39.995Z,97015.44
2018-07-25T10:04:07.466Z,97009.30
2018-07-25T10:06:35.094Z,97005.04
2018-07-25T10:09:02.563Z,97011.58
2018-07-25T10:11:29.986Z,97013.09
2018-07-25T10:13:57.437Z,97011.41
2018-07-25T10:16:24.470Z,97011.93
2018-07-25T10:18:51.662Z,97009.72
2018-07-25T10:21:18.841Z,97011.15
2018-07-25T10:23:45.950Z,97012.33
2018-07-25T10:26:13.502Z,97009.77
2018-07-25T10:28:40.942Z,97003.14
2018-07-25T10:31:08.516Z,97007.00
2018-07-25T10:33:35.999Z,97004.05
2018-07-25T10:36:03.590Z,96997.87
2018-07-25T10:38:30.609Z,96991.90
2018-07-25T10:40:57.732Z,96992.05
2018-07-25T10:43:25.870Z,96988.53
2018-07-25T10:45:53.023Z,96988.31
2018-07-25T10:48:20.490Z,96983.23
2018-07-25T10:50:47.999Z,96980.82
2018-07-25T10:53:15.529Z,96981.94
2018-07-25T10:55:43.215Z,96976.42
2018-07-25T10:58:10.639Z,96975.41
2018-07-25T11:00:38.145Z,96978.81
2018-07-25T11:03:05.659Z,96983.99
2018-07-25T11:05:33.107Z,96982.82
2018-07-25T11:08:00.589Z,96981.10
2018-07-25T11:10:28.117Z,96980.01
2018-07-25T11:12:55.587Z,96978.06
2018-07-25T11:15:23.126Z,96978.33
2018-07-25T11:17:50.707Z,96976.93
2018-07-25T11:20:18.290Z,96980.57
2018-07-25T11:22:45.780Z,96970.47
2018-07-25T11:25:13.265Z,96969.44
2018-07-25T11:27:40.728Z,96961.64
2018-07-25T11:30:08.212Z,96969.53
2018-07-25T11:32:35.830Z,96958.34
2018-07-25T11:35:03.288Z,96956.81
2018-07-25T11:37:30.856Z,96960.64
2018-07-25T11:39:58.352Z,96949.40
2018-07-25T11:42:25.871Z,96953.59
2018-07-25T11:44:53.344Z,96952.84
2018-07-25T11:47:21.144Z,96954.34
2018-07-25T11:49:48.597Z,96954.09
2018-07-25T11:52:16.384Z,96948.60
2018-07-25T11:54:44.000Z,96962.09
2018-07-25T11:57:11.656Z,96962.09
2018-07-25T11:59:39.420Z,96952.55
2018-07-25T12:02:06.874Z,96941.73
2018-07-25T12:04:34.404Z,96953.73
2018-07-25T12:09:29.453Z,96937.66
2018-07-25T12:11:56.930Z,96939.55
2018-07-25T12:14:24.370Z,96934.78
2018-07-25T12:16:52.308Z,96923.23
2018-07-25T12:19:19.817Z,96928.91
2018-07-25T12:21:47.330Z,96924.81
2018-07-25T12:24:14.953Z,96920.92
2018-07-25T12:26:42.420Z,96918.83
2018-07-25T12:29:09.884Z,96916.36
2018-07-25T12:31:37.390Z,96918.48
2018-07-25T12:34:04.918Z,96916.15
2018-07-25T12:36:32.382Z,96911.46
2018-07-25T12:38:59.862Z,96904.23
2018-07-25T12:41:27.423Z,96905.45
2018-07-25T12:43:54.968Z,96896.18
2018-07-25T12:46:22.386Z,96900.58
2018-07-25T12:48:49.858Z,96901.92
2018-07-25T12:51:17.374Z,96898.00
2018-07-25T12:53:44.956Z,96900.02
2018-07-25T12:56:12.355Z,96893.94
2018-07-25T12:58:39.859Z,96895.05
2018-07-25T13:01:07.368Z,96895.31
2018-07-25T13:03:34.868Z,96889.97
2018-07-25T13:06:02.380Z,96890.62
2018-07-25T13:08:29.888Z,96894.21
2018-07-25T13:10:57.368Z,96888.04
2018-07-25T13:13:24.846Z,96888.04
2018-07-25T13:15:52.307Z,96888.12
2018-07-25T13:18:19.753Z,96892.91
2018-07-25T13:20:47.227Z,96888.04
2018-07-25T13:23:14.697Z,96887.31
2018-07-25T13:25:42.176Z,96882.38
2018-07-25T13:28:09.825Z,96885.23
2018-07-25T13:30:37.440Z,96881.86
2018-07-25T13:33:04.900Z,96881.53
2018-07-25T13:35:32.440Z,96877.56
2018-07-25T13:37:59.974Z,96883.73
2018-07-25T13:40:27.489Z,96883.93
2018-07-25T13:42:55.075Z,96878.89
2018-07-25T13:45:22.502Z,96877.97
2018-07-25T13:47:49.912Z,96876.36
2018-07-25T13:50:17.544Z,96874.76
2018-07-25T13:52:44.921Z,96875.49
2018-07-25T13:55:12.441Z,96873.61
2018-07-25T13:57:39.940Z,96863.94
2018-07-25T14:00:07.444Z,96865.73
2018-07-25T14:02:34.895Z,96861.44
2018-07-25T14:05:02.514Z,96860.51
2018-07-25T14:07:29.997Z,96853.72
2018-07-25T14:09:56.939Z,96850.04
2018-07-25T14:12:23.967Z,96848.91
2018-07-25T14:14:51.441Z,96847.53
2018-07-25T14:17:18.915Z,96847.45
2018-07-25T14:19:46.477Z,96836.27
2018-07-25T14:22:13.986Z,96836.59
2018-07-25T14:24:41.546Z,96829.68
2018-07-25T14:27:08.886Z,96834.72
2018-07-25T14:29:36.347Z,96835.36
2018-07-25T14:32:03.325Z,96832.66
2018-07-25T14:34:30.874Z,96834.42
2018-07-25T14:36:58.290Z,96833.73
2018-07-25T14:39:25.833Z,96832.32
2018-07-25T14:41:52.900Z,96823.41
2018-07-25T14:44:20.363Z,96821.05
2018-07-25T14:46:47.896Z,96823.36
2018-07-25T14:49:15.317Z,96826.28
2018-07-25T14:51:42.338Z,96824.48
2018-07-25T14:54:09.326Z,96819.08
2018-07-25T14:56:36.362Z,96820.13
2018-07-25T14:59:03.845Z,96817.84
2018-07-25T15:01:31.303Z,96813.02
2018-07-25T15:03:58.924Z,96809.70
2018-07-25T15:06:26.390Z,96808.71
2018-07-25T15:08:53.887Z,96799.81
2018-07-25T15:11:21.361Z,96795.52
2018-07-25T15:13:48.893Z,96795.62
2018-07-25T15:16:16.359Z,96804.17
2018-07-25T15:18:43.843Z,96805.81
2018-07-25T15:21:11.304Z,96810.05
2018-07-25T15:23:44.536Z,96802.91
2018-07-25T15:26:11.871Z,96802.30
2018-07-25T15:28:39.514Z,96805.52
2018-07-25T15:31:06.991Z,96801.09
2018-07-25T15:33:34.157Z,96790.38
2018-07-25T15:36:01.650Z,96796.45
2018-07-25T15:38:29.119Z,96789.02
2018-07-25T15:40:56.662Z,96797.61
2018-07-25T15:43:24.157Z,96798.36
2018-07-25T15:45:51.604Z,96797.55
2018-07-25T15:48:19.093Z,96799.12
2018-07-25T15:50:46.534Z,96796.07
2018-07-25T15:53:14.410Z,96799.30
2018-07-25T15:55:41.829Z,96800.70
2018-07-25T15:58:08.832Z,96802.00
2018-07-25T16:00:36.320Z,96798.85
2018-07-25T16:03:03.812Z,96806.14
2018-07-25T16:05:31.440Z,96790.05
2018-07-25T16:07:58.888Z,96788.78
2018-07-25T16:10:26.361Z,96790.50
2018-07-25T16:12:53.357Z,96792.00
2018-07-25T16:15:20.811Z,96787.22
2018-07-25T16:17:48.293Z,96787.65
2018-07-25T16:20:15.766Z,96788.30
2018-07-25T16:22:43.357Z,96789.30
2018-07-25T16:25:10.855Z,96787.67
2018-07-25T16:27:38.359Z,96784.45
2018-07-25T16:30:05.397Z,96799.43
2018-07-25T16:32:32.918Z,96794.78
2018-07-25T16:35:00.502Z,96792.52
2018-07-25T16:37:27.628Z,96789.50
2018-07-25T16:39:55.298Z,96789.64
2018-07-25T16:42:22.813Z,96789.47
2018-07-25T16:44:50.329Z,96797.63
2018-07-25T16:47:17.866Z,96797.23
2018-07-25T16:49:45.363Z,96794.89
2018-07-25T16:52:12.914Z,96796.28
2018-07-25T16:54:40.413Z,96801.67
2018-07-25T16:57:07.984Z,96804.88
2018-07-25T16:59:35.123Z,96798.03
2018-07-25T17:02:02.138Z,96790.55
2018-07-25T17:04:29.638Z,96802.73
2018-07-25T17:06:57.255Z,96803.84
2018-07-25T17:09:24.739Z,96804.10
2018-07-25T17:11:52.199Z,96814.86
2018-07-25T17:14:19.711Z,96820.90
2018-07-25T17:16:47.231Z,96824.16
2018-07-25T17:19:14.708Z,96824.34
2018-07-25T17:21:42.197Z,96830.98
2018-07-25T17:24:09.867Z,96832.91
2018-07-25T17:26:37.390Z,96836.75
2018-07-25T17:29:04.891Z,96834.12
2018-07-25T17:31:32.733Z,96843.28
2018-07-25T17:34:00.202Z,96844.23
2018-07-25T17:36:27.674Z,96841.14
2018-07-25T17:38:55.176Z,96839.24
2018-07-25T17:41:23.000Z,96844.81
2018-07-25T17:43:50.402Z,96841.28
2018-07-25T17:46:18.123Z,96850.03
2018-07-25T17:48:45.915Z,96846.44
2018-07-25T17:51:13.367Z,96852.34
2018-07-25T17:53:40.844Z,96851.65
2018-07-25T17:56:07.944Z,96858.53
2018-07-25T17:58:35.998Z,96860.83
2018-07-25T18:01:03.494Z,96858.05
2018-07-25T18:03:31.214Z,96857.72
2018-07-25T18:05:58.587Z,96858.94
2018-07-25T18:08:26.716Z,96853.39
2018-07-25T18:10:54.152Z,96860.05
2018-07-25T18:13:21.752Z,96858.83
2018-07-25T18:15:49.263Z,96863.21
2018-07-25T18:18:16.722Z,96864.77
2018-07-25T18:20:44.188Z,96863.13
2018-07-25T18:23:11.706Z,96868.21
2018-07-25T18:25:39.207Z,96862.25
2018-07-25T18:28:06.788Z,96868.95
2018-07-25T18:30:34.409Z,96864.56
2018-07-25T18:33:01.866Z,96858.27
2018-07-25T18:35:29.469Z,96867.66
2018-07-25T18:37:56.992Z,96865.92
2018-07-25T18:40:24.442Z,96861.50
2018-07-25T18:42:51.923Z,96867.75
2018-07-25T18:45:19.386Z,96878.35
2018-07-25T18:47:46.907Z,96863.97
2018-07-25T18:50:14.409Z,96860.77
2018-07-25T18:52:42.095Z,96863.61
2018-07-25T18:55:09.638Z,96866.73
2018-07-25T18:57:37.336Z,96876.66
2018-07-25T19:00:04.792Z,96869.72
2018-07-25T19:02:32.390Z,96875.96
2018-07-25T19:05:00.402Z,96881.91
2018-07-25T19:07:28.043Z,96874.41
2018-07-25T19:09:55.533Z,96882.77
2018-07-25T19:12:23.232Z,96885.94
2018-07-25T19:14:50.824Z,96876.78
2018-07-25T19:17:18.285Z,96877.72
2018-07-25T19:19:45.752Z,96880.91
2018-07-25T19:22:13.347Z,96878.25
2018-07-25T19:24:40.791Z,96887.17
2018-07-25T19:27:08.355Z,96889.29
2018-07-25T19:29:35.823Z,96892.61
2018-07-25T19:32:03.250Z,96885.78
2018-07-25T19:34:30.760Z,96887.37
2018-07-25T19:36:58.237Z,96890.27
2018-07-25T19:39:25.749Z,96893.38
2018-07-25T19:41:53.225Z,96892.23
2018-07-25T19:44:20.726Z,96897.63
2018-07-25T19:46:48.178Z,96900.13
2018-07-25T19:49:15.595Z,96901.59
2018-07-25T19:51:43.065Z,96902.69
2018-07-25T19:54:10.514Z,96907.92
2018-07-25T19:56:37.972Z,96907.74
2018-07-25T19:59:05.584Z,96904.66
2018-07-25T20:01:33.028Z,96911.14
2018-07-25T20:04:00.938Z,96915.92
2018-07-25T20:06:28.398Z,96910.66
2018-07-25T20:08:55.859Z,96916.27
2018-07-25T20:11:23.667Z,96915.23
2018-07-25T20:13:52.293Z,96922.61
2018-07-25T20:16:19.841Z,96916.52
2018-07-25T20:18:47.288Z,96923.98
2018-07-25T20:21:14.798Z,96924.33
2018-07-25T20:23:42.428Z,96924.73
2018-07-25T20:26:09.965Z,96919.77
2018-07-25T20:28:37.427Z,96924.66
2018-07-25T20:31:04.912Z,96924.77
2018-07-25T20:33:32.405Z,96925.22
2018-07-25T20:36:05.075Z,96922.34
2018-07-25T20:38:32.511Z,96919.63
2018-07-25T20:41:00.015Z,96917.05
2018-07-25T20:43:27.564Z,96916.97
2018-07-25T20:45:55.140Z,96914.79
2018-07-25T20:48:22.759Z,96919.33
2018-07-25T20:50:50.261Z,96920.13
2018-07-25T20:53:17.848Z,96923.23
2018-07-25T20:55:45.357Z,96912.37
2018-07-25T20:58:12.816Z,96914.55
2018-07-25T21:00:40.296Z,96919.62
2018-07-25T21:03:07.764Z,96922.50
2018-07-25T21:05:35.346Z,96918.38
2018-07-25T21:08:03.034Z,96917.84
2018-07-25T21:10:30.511Z,96923.74
2018-07-25T21:12:58.028Z,96924.67
2018-07-25T21:15:25.548Z,96927.45
2018-07-25T21:17:53.067Z,96924.74
2018-07-25T21:20:20.528Z,96919.61
2018-07-25T21:22:47.963Z,96915.47
2018-07-25T21:25:15.510Z,96928.40
2018-07-25T21:27:43.488Z,96933.85
2018-07-25T21:30:10.957Z,96928.89
2018-07-25T21:32:38.454Z,96926.50
2018-07-25T21:35:05.894Z,96923.90
2018-07-25T21:37:33.340Z,96935.17
2018-07-25T21:40:00.945Z,96922.34
2018-07-25T21:42:28.393Z,96928.53
2018-07-25T21:44:55.869Z,96934.06
2018-07-25T21:47:23.407Z,96930.78
2018-07-25T21:49:51.147Z,96926.11
2018-07-25T21:52:18.571Z,96932.34
2018-07-25T21:54:46.024Z,96932.46
2018-07-25T21:57:13.540Z,96937.37
2018-07-25T21:59:41.051Z,96931.03
2018-07-25T22:02:08.492Z,96933.30
2018-07-25T22:04:36.000Z,96934.12
2018-07-25T22:07:03.525Z,96927.01
2018-07-25T22:09:31.065Z,96933.23
2018-07-25T22:11:58.503Z,96930.73
2018-07-25T22:14:25.951Z,96930.25
2018-07-25T22:16:53.546Z,96929.69
2018-07-25T22:19:21.081Z,96931.03
2018-07-25T22:21:48.588Z,96927.19
2018-07-25T22:24:16.042Z,96928.53
2018-07-25T22:26:43.476Z,96936.40
2018-07-25T22:29:10.993Z,96934.12
2018-07-25T22:31:38.435Z,96927.12
2018-07-25T22:34:06.004Z,96933.98
2018-07-25T22:36:33.496Z,96931.30
2018-07-25T22:39:01.776Z,96928.39
2018-07-25T22:41:29.322Z,96922.16
2018-07-25T22:43:56.778Z,96932.14
2018-07-25T22:46:24.360Z,96933.50
2018-07-25T22:48:51.797Z,96931.39
2018-07-25T22:51:19.372Z,96928.30
2018-07-25T22:53:46.874Z,96923.69
2018-07-25T22:56:14.379Z,96922.46
2018-07-25T22:58:41.835Z,96917.80
2018-07-25T23:01:09.318Z,96919.62
2018-07-25T23:03:36.720Z,96916.77
2018-07-25T23:06:04.222Z,96914.35
2018-07-25T23:08:31.680Z,96913.01
2018-07-25T23:10:59.118Z,96904.95
2018-07-25T23:13:26.615Z,96917.52
2018-07-25T23:15:54.066Z,96909.23
2018-07-25T23:18:21.546Z,96915.13
2018-07-25T23:20:49.020Z,96915.99
2018-07-25T23:23:16.453Z,96911.16
2018-07-25T23:25:43.906Z,96910.06
2018-07-25T23:28:11.416Z,96909.16
2018-07-25T23:30:39.086Z,96917.27
2018-07-25T23:33:06.543Z,96916.03
2018-07-25T23:35:34.064Z,96905.72
2018-07-25T23:38:01.546Z,96911.49
2018-07-25T23:40:28.988Z,96908.48
2018-07-25T23:42:56.432Z,96910.84
2018-07-25T23:45:23.901Z,96909.73
2018-07-25T23:47:51.366Z,96906.05
2018-07-25T23:50:18.827Z,96902.34
2018-07-25T23:52:46.226Z,96902.93
2018-07-25T23:55:13.646Z,96901.16
2018-07-25T23:57:41.064Z,96902.19
